Time,TemperatureF,DewpointF,PressureIn,WindDirection,WindDirectionDegrees,WindSpeedMPH,WindSpeedGustMPH,Humidity,HourlyPrecipIn,Conditions,Clouds,dailyrainin,SolarRadiationWatts/m^2,SoftwareType,DateUTC
2014-10-19 00:04:00,63.6,57.7,29.78,ESE,121,1.0,0.0,81,0.00,OVC,SKC,0.00,0.0,WeatherDisplay:10.37,2014-10-19 07:04:00,
2014-10-19 00:09:00,63.6,57.7,29.78,ESE,110,0.0,0.0,81,0.00,OVC,SKC,0.00,0.0,WeatherDisplay:10.37,2014-10-19 07:09:00,
2014-10-19 00:14:00,63.7,57.8,29.78,ESE,114,0.0,0.0,81,0.00,OVC,SKC,0.00,0.0,WeatherDisplay:10.37,2014-10-19 07:14:00,
2014-10-19 00:19:00,63.9,57.6,29.78,SE,132,4.6,4.6,80,0.00,OVC,SKC,0.00,0.0,WeatherDisplay:10.37,2014-10-19 07:19:00,
2014-10-19 00:24:00,64.1,57.5,29.78,East,100,0.0,0.0,79,0.00,OVC,SKC,0.00,0.0,WeatherDisplay:10.37,2014-10-19 07:24:00,
2014-10-19 00:29:00,64.2,57.5,29.77,SSE,150,13.8,13.8,79,0.00,OVC,SKC,0.00,0.0,WeatherDisplay:10.37,2014-10-19 07:29:00,
2014-10-19 00:34:00,64.5,57.5,29.77,SE,126,6.9,6.9,78,0.00,OVC,SKC,0.00,0.0,WeatherDisplay:10.37,2014-10-19 07:34:00,
2014-10-19 00:39:00,64.5,57.5,29.77,SE,136,5.8,5.8,78,0.00,OVC,SKC,0.00,0.0,WeatherDisplay:10.37,2014-10-19 07:39:00,
2014-10-19 00:44:00,64.4,57.4,29.78,SE,129,12.0,12.0,78,0.00,OVC,SKC,0.00,0.0,WeatherDisplay:10.37,2014-10-19 07:44:00,
2014-10-19 00:49:00,64.4,57.0,29.78,ESE,121,9.2,9.2,77,0.00,OVC,SKC,0.00,0.0,WeatherDisplay:10.37,2014-10-19 07:49:00,
2014-10-19 00:54:00,64.5,57.1,29.78,SE,141,3.5,3.5,77,0.00,OVC,SKC,0.00,0.0,WeatherDisplay:10.37,2014-10-19 07:54:00,
2014-10-19 00:59:00,64.5,56.8,29.78,East,91,1.1,1.1,76,0.00,OVC,SKC,0.00,0.0,WeatherDisplay:10.37,2014-10-19 07:59:00,
2014-10-19 01:04:00,64.4,57.0,29.78,East,101,6.9,6.9,77,0.00,OVC,SKC,0.00,0.0,WeatherDisplay:10.37,2014-10-19 08:04:00,
2014-10-19 01:09:00,64.4,57.0,29.78,ESE,110,4.6,4.6,77,0.00,OVC,SKC,0.00,0.0,WeatherDisplay:10.37,2014-10-19 08:09:00,
2014-10-19 01:14:00,64.2,57.2,29.78,SE,127,4.6,4.6,78,0.00,OVC,SKC,0.00,0.0,WeatherDisplay:10.37,2014-10-19 08:14:00,
2014-10-19 01:19:00,64.1,57.1,29.78,ESE,104,1.1,1.1,78,0.00,OVC,SKC,0.00,0.0,WeatherDisplay:10.37,2014-10-19 08:19:00,
2014-10-19 01:24:00,63.9,56.9,29.78,ESE,113,6.9,6.9,78,0.00,OVC,SKC,0.00,0.0,WeatherDisplay:10.37,2014-10-19 08:24:00,
2014-10-19 01:29:00,63.7,57.1,29.78,ESE,104,11.5,11.5,79,0.00,OVC,SKC,0.00,0.0,WeatherDisplay:10.37,2014-10-19 08:29:00,
2014-10-19 01:34:00,63.6,57.0,29.77,ESE,109,11.5,11.5,79,0.00,OVC,SKC,0.00,0.0,WeatherDisplay:10.37,2014-10-19 08:34:00,
2014-10-19 01:39:00,63.4,57.1,29.77,ESE,121,8.1,8.1,80,0.00,OVC,SKC,0.00,0.0,WeatherDisplay:10.37,2014-10-19 08:39:00,
2014-10-19 01:44:00,63.4,57.1,29.77,East,88,10.0,10.0,80,0.00,OVC,SKC,0.00,0.0,WeatherDisplay:10.37,2014-10-19 08:44:00,
2014-10-19 01:49:00,63.4,57.5,29.77,East,86,9.2,9.2,81,0.00,OVC,SKC,0.00,0.0,WeatherDisplay:10.37,2014-10-19 08:49:00,
2014-10-19 01:54:00,63.4,57.5,29.77,East,98,12.7,12.7,81,0.00,OVC,SKC,0.00,0.0,WeatherDisplay:10.37,2014-10-19 08:54:00,
2014-10-19 01:59:00,63.3,57.4,29.76,ESE,113,13.8,13.8,81,0.00,OVC,SKC,0.00,0.0,WeatherDisplay:10.37,2014-10-19 08:59:00,
2014-10-19 02:04:00,63.1,57.2,29.76,ESE,117,14.0,14.0,81,0.00,OVC,SKC,0.00,0.0,WeatherDisplay:10.37,2014-10-19 09:04:00,
2014-10-19 02:09:00,63.1,57.5,29.75,SE,129,9.2,9.2,82,0.00,OVC,SKC,0.00,0.0,WeatherDisplay:10.37,2014-10-19 09:09:00,
2014-10-19 02:14:00,63.3,57.4,29.75,East,86,9.2,9.2,81,0.00,OVC,SKC,0.00,0.0,WeatherDisplay:10.37,2014-10-19 09:14:00,
2014-10-19 02:19:00,63.4,57.1,29.75,East,84,6.9,6.9,80,0.00,OVC,SKC,0.00,0.0,WeatherDisplay:10.37,2014-10-19 09:19:00,
2014-10-19 02:24:00,63.4,57.1,29.75,East,86,9.2,9.2,80,0.00,OVC,SKC,0.00,0.0,WeatherDisplay:10.37,2014-10-19 09:24:00,
2014-10-19 02:29:00,63.3,57.0,29.75,East,96,10.4,10.4,80,0.00,OVC,SKC,0.00,0.0,WeatherDisplay:10.37,2014-10-19 09:29:00,
2014-10-19 02:34:00,63.3,57.0,29.75,East,99,9.2,9.2,80,0.00,OVC,SKC,0.00,0.0,WeatherDisplay:10.37,2014-10-19 09:34:00,
2014-10-19 02:39:00,63.4,56.8,29.75,ESE,115,10.4,10.4,79,0.00,OVC,SKC,0.00,0.0,WeatherDisplay:10.37,2014-10-19 09:39:00,
2014-10-19 02:44:00,63.6,57.0,29.75,ESE,115,10.4,10.4,79,0.00,OVC,SKC,0.00,0.0,WeatherDisplay:10.37,2014-10-19 09:44:00,
2014-10-19 02:49:00,63.6,57.0,29.75,ESE,112,9.2,9.2,79,0.00,OVC,SKC,0.00,0.0,WeatherDisplay:10.37,2014-10-19 09:49:00,
2014-10-19 02:54:00,63.4,56.8,29.75,East,99,6.9,6.9,79,0.00,OVC,SKC,0.00,0.0,WeatherDisplay:10.37,2014-10-19 09:54:00,
2014-10-19 02:59:00,63.3,56.7,29.75,ESE,111,5.0,12.0,79,0.00,OVC,SKC,0.00,0.0,WeatherDisplay:10.37,2014-10-19 09:59:00,
2014-10-19 03:04:00,63.1,56.5,29.75,ESE,122,12.7,12.7,79,0.00,BKN,SKC,0.00,0.0,WeatherDisplay:10.37,2014-10-19 10:04:00,
2014-10-19 03:09:00,63.0,56.4,29.75,SE,144,10.4,10.4,79,0.00,BKN,SKC,0.00,0.0,WeatherDisplay:10.37,2014-10-19 10:09:00,
2014-10-19 03:14:00,63.0,56.4,29.75,SE,129,1.0,0.0,79,0.00,BKN,SKC,0.00,0.0,WeatherDisplay:10.37,2014-10-19 10:14:00,
2014-10-19 03:19:00,63.0,56.0,29.75,East,94,11.5,11.5,78,0.00,BKN,SKC,0.00,0.0,WeatherDisplay:10.37,2014-10-19 10:19:00,
2014-10-19 03:24:00,63.1,56.1,29.75,ESE,119,9.0,9.0,78,0.00,BKN,SKC,0.00,0.0,WeatherDisplay:10.37,2014-10-19 10:24:00,
2014-10-19 03:29:00,63.3,56.0,29.75,ESE,113,5.0,5.0,77,0.00,BKN,SKC,0.00,0.0,WeatherDisplay:10.37,2014-10-19 10:29:00,
2014-10-19 03:34:00,63.3,56.0,29.75,SE,135,4.6,4.6,77,0.00,BKN,SKC,0.00,0.0,WeatherDisplay:10.37,2014-10-19 10:34:00,
2014-10-19 03:39:00,63.1,55.8,29.75,East,99,5.8,5.8,77,0.00,BKN,SKC,0.00,0.0,WeatherDisplay:10.37,2014-10-19 10:39:00,
2014-10-19 03:44:00,63.3,55.6,29.75,ESE,109,6.9,6.9,76,0.00,BKN,SKC,0.00,0.0,WeatherDisplay:10.37,2014-10-19 10:44:00,
2014-10-19 03:49:00,63.3,55.2,29.75,East,101,9.2,9.2,75,0.00,BKN,SKC,0.00,0.0,WeatherDisplay:10.37,2014-10-19 10:49:00,
2014-10-19 03:54:00,63.3,55.2,29.75,SE,128,4.6,4.6,75,0.00,BKN,SKC,0.00,0.0,WeatherDisplay:10.37,2014-10-19 10:54:00,
2014-10-19 03:59:00,63.4,55.3,29.75,ESE,123,4.6,4.6,75,0.00,BKN,SKC,0.00,0.0,WeatherDisplay:10.37,2014-10-19 10:59:00,
2014-10-19 04:04:00,63.6,55.2,29.75,ESE,105,9.2,9.2,74,0.00,BKN,SKC,0.00,0.0,WeatherDisplay:10.37,2014-10-19 11:04:00,
2014-10-19 04:09:00,63.6,55.2,29.75,ESE,112,8.0,8.0,74,0.00,BKN,SKC,0.00,0.0,WeatherDisplay:10.37,2014-10-19 11:09:00,
2014-10-19 04:14:00,63.4,55.0,29.75,SE,132,6.9,0.0,74,0.00,BKN,SKC,0.00,0.0,WeatherDisplay:10.37,2014-10-19 11:14:00,
2014-10-19 04:19:00,63.4,55.0,29.75,SE,146,9.2,9.2,74,0.00,BKN,SKC,0.00,0.0,WeatherDisplay:10.37,2014-10-19 11:19:00,
2014-10-19 04:24:00,63.4,54.6,29.75,ESE,118,11.5,11.5,73,0.00,BKN,SKC,0.00,0.0,WeatherDisplay:10.37,2014-10-19 11:24:00,
2014-10-19 04:29:00,63.4,54.6,29.74,ESE,109,8.1,8.1,73,0.00,BKN,SKC,0.00,0.0,WeatherDisplay:10.37,2014-10-19 11:29:00,
2014-10-19 04:34:00,63.6,54.4,29.74,East,101,5.8,5.8,72,0.00,BKN,SKC,0.00,0.0,WeatherDisplay:10.37,2014-10-19 11:34:00,
2014-10-19 04:39:00,63.7,54.5,29.74,ESE,115,13.0,13.0,72,0.00,BKN,SKC,0.00,0.0,WeatherDisplay:10.37,2014-10-19 11:39:00,
2014-10-19 04:44:00,63.9,54.7,29.74,ESE,115,11.5,11.5,72,0.00,BKN,SKC,0.00,0.0,WeatherDisplay:10.37,2014-10-19 11:44:00,
2014-10-19 04:49:00,63.9,54.3,29.73,ESE,109,9.2,9.2,71,0.00,BKN,SKC,0.00,0.0,WeatherDisplay:10.37,2014-10-19 11:49:00,
2014-10-19 04:54:00,63.9,54.3,29.73,ESE,113,9.2,9.2,71,0.00,BKN,SKC,0.00,0.0,WeatherDisplay:10.37,2014-10-19 11:54:00,
2014-10-19 04:59:00,63.7,54.1,29.73,ESE,109,6.9,6.9,71,0.00,BKN,SKC,0.00,0.0,WeatherDisplay:10.37,2014-10-19 11:59:00,
2014-10-19 05:04:00,63.7,54.5,29.73,ESE,120,6.9,6.9,72,0.00,BKN,SKC,0.00,0.0,WeatherDisplay:10.37,2014-10-19 12:04:00,
2014-10-19 05:09:00,63.9,54.7,29.73,ESE,103,9.2,9.2,72,0.00,BKN,SKC,0.00,0.0,WeatherDisplay:10.37,2014-10-19 12:09:00,
2014-10-19 05:14:00,63.9,54.7,29.73,ESE,121,9.2,9.2,72,0.00,BKN,SKC,0.00,0.0,WeatherDisplay:10.37,2014-10-19 12:14:00,
2014-10-19 05:19:00,64.1,54.9,29.73,SE,133,11.5,11.5,72,0.00,BKN,SKC,0.00,0.0,WeatherDisplay:10.37,2014-10-19 12:19:00,
2014-10-19 05:24:00,64.1,54.9,29.73,SE,124,6.9,6.9,72,0.00,BKN,SKC,0.00,0.0,WeatherDisplay:10.37,2014-10-19 12:24:00,
2014-10-19 05:29:00,64.1,54.9,29.73,SE,146,11.5,11.5,72,0.00,BKN,SKC,0.00,0.0,WeatherDisplay:10.37,2014-10-19 12:29:00,
2014-10-19 05:34:00,64.1,54.9,29.72,SE,129,5.8,5.8,72,0.00,BKN,SKC,0.00,0.0,WeatherDisplay:10.37,2014-10-19 12:34:00,
2014-10-19 05:39:00,63.9,54.7,29.72,SE,140,10.4,10.4,72,0.00,BKN,SKC,0.00,0.0,WeatherDisplay:10.37,2014-10-19 12:39:00,
2014-10-19 05:44:00,63.7,54.1,29.72,SE,131,11.5,11.5,71,0.00,BKN,SKC,0.00,0.0,WeatherDisplay:10.37,2014-10-19 12:44:00,
2014-10-19 05:49:00,63.7,54.1,29.72,SSE,161,12.7,12.7,71,0.00,BKN,SKC,0.00,0.0,WeatherDisplay:10.37,2014-10-19 12:49:00,
2014-10-19 05:54:00,63.6,53.6,29.72,SE,143,11.5,11.5,70,0.00,BKN,SKC,0.00,0.0,WeatherDisplay:10.37,2014-10-19 12:54:00,
2014-10-19 05:59:00,63.7,53.7,29.72,SE,134,10.4,10.4,70,0.00,BKN,SKC,0.00,0.0,WeatherDisplay:10.37,2014-10-19 12:59:00,
2014-10-19 06:04:00,63.9,53.5,29.71,SE,126,11.0,11.0,69,0.00,BKN,SKC,0.00,0.0,WeatherDisplay:10.37,2014-10-19 13:04:00,
2014-10-19 06:09:00,64.1,53.3,29.71,ESE,110,6.9,6.9,68,0.00,BKN,SKC,0.00,0.0,WeatherDisplay:10.37,2014-10-19 13:09:00,
2014-10-19 06:14:00,64.1,53.3,29.71,SE,131,5.8,5.8,68,0.00,BKN,SKC,0.00,0.0,WeatherDisplay:10.37,2014-10-19 13:14:00,
2014-10-19 06:19:00,64.2,53.4,29.70,ESE,107,12.7,12.7,68,0.00,BKN,SKC,0.00,0.0,WeatherDisplay:10.37,2014-10-19 13:19:00,
2014-10-19 06:24:00,64.4,53.2,29.70,ESE,113,11.5,11.5,67,0.00,BKN,SKC,0.00,0.0,WeatherDisplay:10.37,2014-10-19 13:24:00,
2014-10-19 06:29:00,64.4,53.6,29.70,SE,143,11.5,11.5,68,0.00,BKN,SKC,0.00,0.0,WeatherDisplay:10.37,2014-10-19 13:29:00,
2014-10-19 06:34:00,64.4,53.6,29.69,ESE,123,6.9,6.9,68,0.00,BKN,SKC,0.00,0.0,WeatherDisplay:10.37,2014-10-19 13:34:00,
2014-10-19 06:39:00,64.2,53.4,29.70,SSE,148,5.8,5.8,68,0.00,BKN,SKC,0.00,0.0,WeatherDisplay:10.37,2014-10-19 13:39:00,
2014-10-19 06:44:00,64.2,53.4,29.70,SSE,149,9.2,9.2,68,0.00,BKN,SKC,0.00,0.0,WeatherDisplay:10.37,2014-10-19 13:44:00,
2014-10-19 06:49:00,64.4,53.6,29.70,SE,138,6.9,6.9,68,0.00,BKN,SKC,0.00,0.0,WeatherDisplay:10.37,2014-10-19 13:49:00,
2014-10-19 06:54:00,64.4,53.6,29.70,East,88,11.5,11.5,68,0.00,BKN,SKC,0.00,0.0,WeatherDisplay:10.37,2014-10-19 13:54:00,
2014-10-19 06:59:00,64.4,53.2,29.69,SE,144,9.2,9.2,67,0.00,BKN,SKC,0.00,0.0,WeatherDisplay:10.37,2014-10-19 13:59:00,
2014-10-19 07:04:00,64.5,53.3,29.69,SE,134,6.9,6.9,67,0.00,BKN,SKC,0.00,0.0,WeatherDisplay:10.37,2014-10-19 14:04:00,
2014-10-19 07:09:00,64.7,53.5,29.69,East,90,11.5,11.5,67,0.00,BKN,SKC,0.00,0.0,WeatherDisplay:10.37,2014-10-19 14:09:00,
2014-10-19 07:14:00,64.5,53.3,29.69,ESE,106,5.8,5.8,67,0.00,BKN,SKC,0.00,0.0,WeatherDisplay:10.37,2014-10-19 14:14:00,
2014-10-19 07:19:00,64.7,53.5,29.69,SE,136,9.2,9.2,67,0.00,BKN,SKC,0.00,0.0,WeatherDisplay:10.37,2014-10-19 14:19:00,
2014-10-19 07:24:00,64.9,53.7,29.68,ESE,111,10.4,10.4,67,0.00,BKN,SKC,0.00,0.0,WeatherDisplay:10.37,2014-10-19 14:24:00,
2014-10-19 07:29:00,64.7,53.5,29.68,ESE,117,2.0,13.0,67,0.00,BKN,SKC,0.00,5.0,WeatherDisplay:10.37,2014-10-19 14:29:00,
2014-10-19 07:34:00,64.5,53.7,29.68,SE,128,6.0,6.0,68,0.00,BKN,SKC,0.00,0.0,WeatherDisplay:10.37,2014-10-19 14:34:00,
2014-10-19 07:39:00,64.2,53.8,29.68,SSE,150,9.2,9.2,69,0.00,BKN,SKC,0.00,0.0,WeatherDisplay:10.37,2014-10-19 14:39:00,
2014-10-19 07:44:00,63.9,53.5,29.68,ESE,121,0.0,0.0,69,0.00,BKN,SKC,0.00,0.0,WeatherDisplay:10.37,2014-10-19 14:44:00,
2014-10-19 07:49:00,63.7,53.7,29.68,ESE,117,4.6,4.6,70,0.00,BKN,SKC,0.00,7.0,WeatherDisplay:10.37,2014-10-19 14:49:00,
2014-10-19 07:54:00,63.6,54.0,29.68,East,92,6.0,6.0,71,0.00,BKN,SKC,0.00,11.0,WeatherDisplay:10.37,2014-10-19 14:54:00,
2014-10-19 07:59:00,63.6,54.0,29.68,SE,129,4.6,4.6,71,0.00,BKN,SKC,0.00,11.0,WeatherDisplay:10.37,2014-10-19 14:59:00,
2014-10-19 08:04:00,63.7,54.1,29.69,SE,129,5.0,5.0,71,0.00,BKN,SKC,0.00,12.0,WeatherDisplay:10.37,2014-10-19 15:04:00,
2014-10-19 08:09:00,63.9,53.9,29.69,East,98,2.3,2.3,70,0.00,BKN,SKC,0.00,12.0,WeatherDisplay:10.37,2014-10-19 15:09:00,
2014-10-19 08:14:00,63.9,53.9,29.69,ESE,115,2.3,0.0,70,0.00,BKN,SKC,0.00,21.0,WeatherDisplay:10.37,2014-10-19 15:14:00,
2014-10-19 08:19:00,64.1,54.1,29.69,ESE,110,9.2,9.2,70,0.00,BKN,SKC,0.00,18.0,WeatherDisplay:10.37,2014-10-19 15:19:00,
2014-10-19 08:24:00,64.2,54.2,29.69,SE,136,5.8,5.8,70,0.00,BKN,SKC,0.00,35.0,WeatherDisplay:10.37,2014-10-19 15:24:00,
2014-10-19 08:29:00,64.4,54.4,29.69,SE,136,9.2,9.2,70,0.00,BKN,SKC,0.00,46.0,WeatherDisplay:10.37,2014-10-19 15:29:00,
2014-10-19 08:34:00,64.5,54.1,29.69,SE,146,6.0,6.0,69,0.00,BKN,SKC,0.00,42.0,WeatherDisplay:10.37,2014-10-19 15:34:00,
2014-10-19 08:39:00,64.9,54.5,29.69,ESE,121,3.5,3.5,69,0.00,BKN,SKC,0.00,53.0,WeatherDisplay:10.37,2014-10-19 15:39:00,
2014-10-19 08:44:00,64.9,54.5,29.69,ESE,121,9.2,9.2,69,0.00,BKN,SKC,0.00,98.0,WeatherDisplay:10.37,2014-10-19 15:44:00,
2014-10-19 08:49:00,64.9,54.1,29.69,ESE,113,12.7,12.7,68,0.00,BKN,SKC,0.00,47.0,WeatherDisplay:10.37,2014-10-19 15:49:00,
2014-10-19 08:54:00,65.0,54.2,29.69,SSE,161,6.9,6.9,68,0.00,BKN,SKC,0.00,49.0,WeatherDisplay:10.37,2014-10-19 15:54:00,
2014-10-19 08:59:00,65.0,54.2,29.69,SE,131,7.0,7.0,68,0.00,BKN,SKC,0.00,46.0,WeatherDisplay:10.37,2014-10-19 15:59:00,
2014-10-19 09:04:00,64.9,54.5,29.69,SE,140,3.5,3.5,69,0.00,BKN,SKC,0.00,141.0,WeatherDisplay:10.37,2014-10-19 16:04:00,
2014-10-19 09:09:00,65.0,54.6,29.69,SSE,157,4.6,4.6,69,0.00,BKN,SKC,0.00,160.0,WeatherDisplay:10.37,2014-10-19 16:09:00,
2014-10-19 09:14:00,65.5,54.7,29.69,SE,142,10.4,10.4,68,0.00,BKN,SKC,0.00,267.0,WeatherDisplay:10.37,2014-10-19 16:14:00,
2014-10-19 09:19:00,66.2,54.5,29.69,SE,127,12.7,12.7,66,0.00,BKN,SKC,0.00,118.0,WeatherDisplay:10.37,2014-10-19 16:19:00,
2014-10-19 09:24:00,66.5,54.8,29.69,SE,133,1.1,1.1,66,0.00,BKN,SKC,0.00,299.0,WeatherDisplay:10.37,2014-10-19 16:24:00,
2014-10-19 09:29:00,66.6,54.9,29.69,SE,138,2.0,13.0,66,0.00,BKN,SKC,0.00,132.0,WeatherDisplay:10.37,2014-10-19 16:29:00,
2014-10-19 09:34:00,67.0,55.3,29.69,SE,129,11.5,11.5,66,0.00,BKN,SKC,0.00,311.0,WeatherDisplay:10.37,2014-10-19 16:34:00,
2014-10-19 09:39:00,67.3,55.1,29.69,ESE,111,15.0,15.0,65,0.00,BKN,SKC,0.00,308.0,WeatherDisplay:10.37,2014-10-19 16:39:00,
2014-10-19 09:44:00,67.3,55.1,29.69,SSE,150,17.3,17.3,65,0.00,BKN,SKC,0.00,306.0,WeatherDisplay:10.37,2014-10-19 16:44:00,
2014-10-19 09:49:00,67.4,55.2,29.69,SE,141,15.0,15.0,65,0.00,BKN,SKC,0.00,322.0,WeatherDisplay:10.37,2014-10-19 16:49:00,
2014-10-19 09:54:00,67.8,55.6,29.69,South,173,9.2,9.2,65,0.00,BKN,SKC,0.00,336.0,WeatherDisplay:10.37,2014-10-19 16:54:00,
2014-10-19 09:59:00,67.9,55.3,29.69,SSE,153,18.4,18.4,64,0.00,BKN,SKC,0.00,341.0,WeatherDisplay:10.37,2014-10-19 16:59:00,
2014-10-19 10:04:00,68.3,55.2,29.69,SE,142,11.5,11.5,63,0.00,BKN,SKC,0.00,378.0,WeatherDisplay:10.37,2014-10-19 17:04:00,
2014-10-19 10:09:00,68.6,55.5,29.69,South,169,13.8,13.8,63,0.00,BKN,SKC,0.00,392.0,WeatherDisplay:10.37,2014-10-19 17:09:00,
2014-10-19 10:14:00,69.1,55.5,29.68,SE,141,12.7,12.7,62,0.00,BKN,SKC,0.00,415.0,WeatherDisplay:10.37,2014-10-19 17:14:00,
2014-10-19 10:19:00,69.6,55.6,29.68,SSE,153,11.0,11.0,61,0.00,BKN,SKC,0.00,454.0,WeatherDisplay:10.37,2014-10-19 17:19:00,
2014-10-19 10:24:00,69.8,55.3,29.68,SE,126,15.0,15.0,60,0.00,BKN,SKC,0.00,125.0,WeatherDisplay:10.37,2014-10-19 17:24:00,
2014-10-19 10:29:00,69.4,54.9,29.68,SE,136,9.0,21.0,60,0.00,BKN,SKC,0.00,109.0,WeatherDisplay:10.37,2014-10-19 17:29:00,
2014-10-19 10:34:00,69.3,55.3,29.68,SE,142,13.8,13.8,61,0.00,BKN,SKC,0.00,100.0,WeatherDisplay:10.37,2014-10-19 17:34:00,
2014-10-19 10:39:00,69.1,55.1,29.68,SE,142,17.3,17.3,61,0.00,BKN,SKC,0.00,125.0,WeatherDisplay:10.37,2014-10-19 17:39:00,
2014-10-19 10:44:00,68.9,55.3,29.68,SE,146,19.0,19.0,62,0.00,BKN,SKC,0.00,165.0,WeatherDisplay:10.37,2014-10-19 17:44:00,
2014-10-19 10:49:00,69.1,55.5,29.68,SSE,147,16.1,16.1,62,0.00,BKN,SKC,0.00,450.0,WeatherDisplay:10.37,2014-10-19 17:49:00,
2014-10-19 10:54:00,69.3,55.3,29.68,SSE,148,17.3,17.3,61,0.00,BKN,SKC,0.00,446.0,WeatherDisplay:10.37,2014-10-19 17:54:00,
2014-10-19 10:59:00,69.6,55.6,29.68,SE,144,11.5,11.5,61,0.00,BKN,SKC,0.00,455.0,WeatherDisplay:10.37,2014-10-19 17:59:00,
2014-10-19 11:04:00,69.9,55.8,29.67,SSE,153,18.0,18.0,61,0.00,BKN,SKC,0.00,466.0,WeatherDisplay:10.37,2014-10-19 18:04:00,
2014-10-19 11:09:00,69.9,55.8,29.68,SSE,163,19.6,19.6,61,0.00,BKN,SKC,0.00,464.0,WeatherDisplay:10.37,2014-10-19 18:09:00,
2014-10-19 11:14:00,69.9,55.8,29.68,SSE,147,19.6,19.6,61,0.00,BKN,SKC,0.00,473.0,WeatherDisplay:10.37,2014-10-19 18:14:00,
2014-10-19 11:19:00,69.8,55.7,29.68,SE,130,19.6,19.6,61,0.00,BKN,SKC,0.00,466.0,WeatherDisplay:10.37,2014-10-19 18:19:00,
2014-10-19 11:24:00,69.8,55.7,29.68,ESE,106,19.0,19.0,61,0.00,BKN,SKC,0.00,468.0,WeatherDisplay:10.37,2014-10-19 18:24:00,
2014-10-19 11:29:00,69.8,55.8,29.67,SE,133,7.0,25.0,61,0.00,BKN,SKC,0.00,473.0,WeatherDisplay:10.37,2014-10-19 18:29:00,
2014-10-19 11:34:00,69.8,57.1,29.67,ENE,69,18.4,18.4,64,0.00,BKN,SKC,0.00,475.0,WeatherDisplay:10.37,2014-10-19 18:34:00,
2014-10-19 11:39:00,69.8,56.2,29.67,SE,138,17.3,17.3,62,0.00,BKN,SKC,0.00,482.0,WeatherDisplay:10.37,2014-10-19 18:39:00,
2014-10-19 11:44:00,69.6,56.4,29.67,ESE,108,24.2,24.2,63,0.00,BKN,SKC,0.00,485.0,WeatherDisplay:10.37,2014-10-19 18:44:00,
2014-10-19 11:49:00,69.6,56.9,29.67,SE,141,23.0,23.0,64,0.00,BKN,SKC,0.00,494.0,WeatherDisplay:10.37,2014-10-19 18:49:00,
2014-10-19 11:54:00,69.8,57.1,29.67,SSE,157,18.0,18.0,64,0.00,BKN,SKC,0.00,508.0,WeatherDisplay:10.37,2014-10-19 18:54:00,
2014-10-19 11:59:00,69.9,57.2,29.68,SE,134,16.1,16.1,64,0.00,BKN,SKC,0.00,503.0,WeatherDisplay:10.37,2014-10-19 18:59:00,
2014-10-19 12:04:00,69.8,57.1,29.68,South,189,15.0,15.0,64,0.00,BKN,SKC,0.00,499.0,WeatherDisplay:10.37,2014-10-19 19:04:00,
2014-10-19 12:09:00,69.9,56.7,29.68,SSE,168,19.6,19.6,63,0.00,BKN,SKC,0.00,503.0,WeatherDisplay:10.37,2014-10-19 19:09:00,
2014-10-19 12:14:00,69.9,57.2,29.68,SSE,149,20.7,20.7,64,0.00,BKN,SKC,0.00,504.0,WeatherDisplay:10.37,2014-10-19 19:14:00,
2014-10-19 12:19:00,70.1,57.4,29.68,SE,131,19.6,19.6,64,0.00,BKN,SKC,0.00,506.0,WeatherDisplay:10.37,2014-10-19 19:19:00,
2014-10-19 12:24:00,70.3,57.1,29.68,SE,130,21.9,21.9,63,0.00,BKN,SKC,0.00,508.0,WeatherDisplay:10.37,2014-10-19 19:24:00,
2014-10-19 12:29:00,70.6,56.9,29.68,SSW,196,22.0,22.0,62,0.00,BKN,SKC,0.00,510.0,WeatherDisplay:10.37,2014-10-19 19:29:00,
2014-10-19 12:34:00,70.8,57.1,29.68,East,101,27.6,27.6,62,0.00,BKN,SKC,0.00,513.0,WeatherDisplay:10.37,2014-10-19 19:34:00,
2014-10-19 12:39:00,70.8,57.1,29.68,SSE,154,19.6,19.6,62,0.00,BKN,SKC,0.00,513.0,WeatherDisplay:10.37,2014-10-19 19:39:00,
2014-10-19 12:44:00,71.1,57.4,29.68,ESE,114,18.4,18.4,62,0.00,BKN,SKC,0.00,513.0,WeatherDisplay:10.37,2014-10-19 19:44:00,
2014-10-19 12:49:00,71.1,57.0,29.68,ESE,107,18.4,18.4,61,0.00,BKN,SKC,0.00,513.0,WeatherDisplay:10.37,2014-10-19 19:49:00,
2014-10-19 12:54:00,71.3,56.7,29.68,SE,128,25.3,25.3,60,0.00,BKN,SKC,0.00,513.0,WeatherDisplay:10.37,2014-10-19 19:54:00,
2014-10-19 12:59:00,71.3,56.7,29.68,SE,140,12.0,25.0,60,0.00,BKN,SKC,0.00,513.0,WeatherDisplay:10.37,2014-10-19 19:59:00,
2014-10-19 13:04:00,71.3,56.2,29.66,SE,142,14.0,14.0,59,0.00,SCT,SKC,0.00,512.0,WeatherDisplay:10.37,2014-10-19 20:04:00,
2014-10-19 13:09:00,71.4,56.3,29.66,ESE,113,17.3,17.3,59,0.00,SCT,SKC,0.00,510.0,WeatherDisplay:10.37,2014-10-19 20:09:00,
2014-10-19 13:14:00,71.6,56.0,29.66,SSE,165,21.9,21.9,58,0.00,SCT,SKC,0.00,508.0,WeatherDisplay:10.37,2014-10-19 20:14:00,
2014-10-19 13:19:00,71.8,55.7,29.66,SSE,163,17.3,17.3,57,0.00,SCT,SKC,0.00,506.0,WeatherDisplay:10.37,2014-10-19 20:19:00,
2014-10-19 13:24:00,71.6,55.6,29.66,SE,136,19.6,19.6,57,0.00,SCT,SKC,0.00,504.0,WeatherDisplay:10.37,2014-10-19 20:24:00,
2014-10-19 13:29:00,71.8,55.7,29.66,SSE,164,15.0,15.0,57,0.00,SCT,SKC,0.00,508.0,WeatherDisplay:10.37,2014-10-19 20:29:00,
2014-10-19 13:34:00,71.9,55.3,29.66,SSE,150,19.6,19.6,56,0.00,SCT,SKC,0.00,510.0,WeatherDisplay:10.37,2014-10-19 20:34:00,
2014-10-19 13:39:00,71.9,54.9,29.65,SSE,161,18.4,18.4,55,0.00,SCT,SKC,0.00,513.0,WeatherDisplay:10.37,2014-10-19 20:39:00,
2014-10-19 13:44:00,71.9,54.9,29.65,East,85,15.0,15.0,55,0.00,SCT,SKC,0.00,512.0,WeatherDisplay:10.37,2014-10-19 20:44:00,
2014-10-19 13:49:00,71.9,54.3,29.65,SSW,196,21.9,21.9,54,0.00,SCT,SKC,0.00,513.0,WeatherDisplay:10.37,2014-10-19 20:49:00,
2014-10-19 13:54:00,72.1,54.5,29.65,SE,136,19.6,19.6,54,0.00,SCT,SKC,0.00,522.0,WeatherDisplay:10.37,2014-10-19 20:54:00,
2014-10-19 13:59:00,71.9,54.9,29.64,ESE,120,24.2,24.2,55,0.00,SCT,SKC,0.00,512.0,WeatherDisplay:10.37,2014-10-19 20:59:00,
2014-10-19 14:04:00,72.1,55.0,29.64,East,91,13.8,13.8,55,0.00,SCT,SKC,0.00,522.0,WeatherDisplay:10.37,2014-10-19 21:04:00,
2014-10-19 14:09:00,72.1,55.0,29.64,SE,135,12.7,12.7,55,0.00,SCT,SKC,0.00,526.0,WeatherDisplay:10.37,2014-10-19 21:09:00,
2014-10-19 14:14:00,71.9,54.3,29.64,SSE,147,25.3,25.3,54,0.00,SCT,SKC,0.00,519.0,WeatherDisplay:10.37,2014-10-19 21:14:00,
2014-10-19 14:19:00,71.8,54.8,29.64,SE,140,26.5,26.5,55,0.00,SCT,SKC,0.00,459.0,WeatherDisplay:10.37,2014-10-19 21:19:00,
2014-10-19 14:24:00,71.8,54.8,29.64,ESE,105,17.3,17.3,55,0.00,SCT,SKC,0.00,536.0,WeatherDisplay:10.37,2014-10-19 21:24:00,
2014-10-19 14:29:00,71.8,54.8,29.64,SSE,159,28.8,28.8,55,0.00,SCT,SKC,0.00,526.0,WeatherDisplay:10.37,2014-10-19 21:29:00,
2014-10-19 14:34:00,71.9,54.9,29.63,SE,138,20.7,20.7,55,0.00,SCT,SKC,0.00,519.0,WeatherDisplay:10.37,2014-10-19 21:34:00,
2014-10-19 14:39:00,71.8,54.8,29.63,SSE,159,17.3,17.3,55,0.00,SCT,SKC,0.00,513.0,WeatherDisplay:10.37,2014-10-19 21:39:00,
2014-10-19 14:44:00,71.9,54.9,29.63,ESE,123,25.3,25.3,55,0.00,SCT,SKC,0.00,473.0,WeatherDisplay:10.37,2014-10-19 21:44:00,
2014-10-19 14:49:00,72.1,55.0,29.63,SSE,149,11.5,11.5,55,0.00,SCT,SKC,0.00,499.0,WeatherDisplay:10.37,2014-10-19 21:49:00,
2014-10-19 14:54:00,71.8,54.8,29.63,ESE,119,19.6,19.6,55,0.00,SCT,SKC,0.00,468.0,WeatherDisplay:10.37,2014-10-19 21:54:00,
2014-10-19 14:59:00,71.8,55.3,29.63,SSE,154,14.0,35.0,56,0.00,SCT,SKC,0.00,471.0,WeatherDisplay:10.37,2014-10-19 21:59:00,
2014-10-19 15:04:00,71.6,55.1,29.63,SE,136,18.0,18.0,56,0.00,SCT,SKC,0.00,476.0,WeatherDisplay:10.37,2014-10-19 22:04:00,
2014-10-19 15:09:00,71.6,55.1,29.63,SSE,159,20.7,20.7,56,0.00,SCT,SKC,0.00,485.0,WeatherDisplay:10.37,2014-10-19 22:09:00,
2014-10-19 15:14:00,71.1,55.1,29.63,SSE,153,25.3,25.3,57,0.00,SCT,SKC,0.00,485.0,WeatherDisplay:10.37,2014-10-19 22:14:00,
2014-10-19 15:19:00,70.6,54.6,29.62,South,173,25.3,25.3,57,0.00,SCT,SKC,0.00,454.0,WeatherDisplay:10.37,2014-10-19 22:19:00,
2014-10-19 15:24:00,70.8,54.8,29.61,SE,130,18.4,18.4,57,0.00,SCT,SKC,0.00,452.0,WeatherDisplay:10.37,2014-10-19 22:24:00,
2014-10-19 15:29:00,70.6,54.6,29.62,SSE,157,26.5,26.5,57,0.00,SCT,SKC,0.00,427.0,WeatherDisplay:10.37,2014-10-19 22:29:00,
2014-10-19 15:34:00,70.3,54.8,29.62,SSE,157,19.6,19.6,58,0.00,SCT,SKC,0.00,422.0,WeatherDisplay:10.37,2014-10-19 22:34:00,
2014-10-19 15:39:00,70.4,54.9,29.63,SE,146,27.6,27.6,58,0.00,SCT,SKC,0.00,378.0,WeatherDisplay:10.37,2014-10-19 22:39:00,
2014-10-19 15:44:00,70.8,54.3,29.63,SE,146,27.6,27.6,56,0.00,SCT,SKC,0.00,348.0,WeatherDisplay:10.37,2014-10-19 22:44:00,
2014-10-19 15:49:00,70.9,54.4,29.62,SE,124,25.3,25.3,56,0.00,SCT,SKC,0.00,339.0,WeatherDisplay:10.37,2014-10-19 22:49:00,
2014-10-19 15:54:00,70.9,53.9,29.62,ESE,121,26.5,26.5,55,0.00,SCT,SKC,0.00,304.0,WeatherDisplay:10.37,2014-10-19 22:54:00,
2014-10-19 15:59:00,70.8,54.3,29.63,SE,140,9.0,33.0,56,0.00,SCT,SKC,0.00,287.0,WeatherDisplay:10.37,2014-10-19 22:59:00,
2014-10-19 16:04:00,70.3,54.3,29.62,South,170,23.0,23.0,57,0.00,BKN,SKC,0.00,271.0,WeatherDisplay:10.37,2014-10-19 23:04:00,
2014-10-19 16:09:00,70.6,54.6,29.62,East,94,16.1,16.1,57,0.00,BKN,SKC,0.00,262.0,WeatherDisplay:10.37,2014-10-19 23:09:00,
2014-10-19 16:14:00,70.6,54.6,29.62,ESE,106,21.9,21.9,57,0.00,BKN,SKC,0.00,258.0,WeatherDisplay:10.37,2014-10-19 23:14:00,
2014-10-19 16:19:00,70.3,54.8,29.62,SSE,155,26.5,26.5,58,0.00,BKN,SKC,0.00,258.0,WeatherDisplay:10.37,2014-10-19 23:19:00,
2014-10-19 16:24:00,70.3,54.8,29.62,SSE,154,21.9,21.9,58,0.00,BKN,SKC,0.00,246.0,WeatherDisplay:10.37,2014-10-19 23:24:00,
2014-10-19 16:29:00,70.3,54.8,29.63,SE,145,19.6,19.6,58,0.00,BKN,SKC,0.00,236.0,WeatherDisplay:10.37,2014-10-19 23:29:00,
2014-10-19 16:34:00,70.4,54.9,29.63,SE,128,17.3,17.3,58,0.00,BKN,SKC,0.00,214.0,WeatherDisplay:10.37,2014-10-19 23:34:00,
2014-10-19 16:39:00,70.3,55.3,29.63,SSE,163,17.3,17.3,59,0.00,BKN,SKC,0.00,195.0,WeatherDisplay:10.37,2014-10-19 23:39:00,
2014-10-19 16:44:00,70.3,55.3,29.63,ESE,118,19.6,19.6,59,0.00,BKN,SKC,0.00,193.0,WeatherDisplay:10.37,2014-10-19 23:44:00,
2014-10-19 16:49:00,70.3,55.3,29.63,SSE,151,19.6,19.6,59,0.00,BKN,SKC,0.00,160.0,WeatherDisplay:10.37,2014-10-19 23:49:00,
2014-10-19 16:54:00,70.1,55.6,29.63,South,188,13.8,13.8,60,0.00,BKN,SKC,0.00,146.0,WeatherDisplay:10.37,2014-10-19 23:54:00,
2014-10-19 16:59:00,69.8,55.3,29.63,SSE,168,15.0,15.0,60,0.00,BKN,SKC,0.00,93.0,WeatherDisplay:10.37,2014-10-19 23:59:00,
2014-10-19 17:04:00,69.6,55.6,29.63,SSE,155,16.1,16.1,61,0.00,BKN,SKC,0.00,86.0,WeatherDisplay:10.37,2014-10-20 00:04:00,
2014-10-19 17:09:00,69.4,55.8,29.63,SSE,166,5.8,5.8,62,0.00,BKN,SKC,0.00,91.0,WeatherDisplay:10.37,2014-10-20 00:09:00,
2014-10-19 17:14:00,69.4,55.8,29.63,SSE,151,16.1,16.1,62,0.00,BKN,SKC,0.00,105.0,WeatherDisplay:10.37,2014-10-20 00:14:00,
2014-10-19 17:19:00,69.6,55.6,29.63,SE,132,16.1,16.1,61,0.00,BKN,SKC,0.00,98.0,WeatherDisplay:10.37,2014-10-20 00:19:00,
2014-10-19 17:24:00,69.8,55.7,29.63,East,101,21.9,21.9,61,0.00,BKN,SKC,0.00,77.0,WeatherDisplay:10.37,2014-10-20 00:24:00,
2014-10-19 17:29:00,69.8,55.7,29.62,SE,144,23.0,23.0,61,0.00,BKN,SKC,0.00,37.0,WeatherDisplay:10.37,2014-10-20 00:29:00,
2014-10-19 17:34:00,69.6,55.6,29.63,SE,140,11.5,11.5,61,0.00,BKN,SKC,0.00,19.0,WeatherDisplay:10.37,2014-10-20 00:34:00,
2014-10-19 17:39:00,69.4,55.4,29.63,SSE,168,13.0,13.0,61,0.00,BKN,SKC,0.00,16.0,WeatherDisplay:10.37,2014-10-20 00:39:00,
2014-10-19 17:44:00,69.3,55.7,29.63,ESE,109,10.4,10.4,62,0.00,BKN,SKC,0.00,14.0,WeatherDisplay:10.37,2014-10-20 00:44:00,
2014-10-19 17:49:00,69.1,55.5,29.63,SE,130,16.1,16.1,62,0.00,BKN,SKC,0.00,12.0,WeatherDisplay:10.37,2014-10-20 00:49:00,
2014-10-19 17:54:00,68.9,55.8,29.63,South,186,13.8,13.8,63,0.00,BKN,SKC,0.00,9.0,WeatherDisplay:10.37,2014-10-20 00:54:00,
2014-10-19 17:59:00,68.8,55.7,29.63,SSE,153,13.8,13.8,63,0.00,BKN,SKC,0.00,7.0,WeatherDisplay:10.37,2014-10-20 00:59:00,
2014-10-19 18:04:00,68.6,55.5,29.63,SE,132,11.5,11.5,63,0.00,SCT,SKC,0.00,5.0,WeatherDisplay:10.37,2014-10-20 01:04:00,
2014-10-19 18:09:00,68.4,55.7,29.63,SE,138,15.0,15.0,64,0.00,SCT,SKC,0.00,5.0,WeatherDisplay:10.37,2014-10-20 01:09:00,
2014-10-19 18:14:00,68.4,55.7,29.63,SSE,149,16.1,16.1,64,0.00,SCT,SKC,0.00,0.0,WeatherDisplay:10.37,2014-10-20 01:14:00,
2014-10-19 18:19:00,68.4,55.7,29.63,East,98,16.1,16.1,64,0.00,SCT,SKC,0.00,0.0,WeatherDisplay:10.37,2014-10-20 01:19:00,
2014-10-19 18:24:00,68.3,56.1,29.63,SE,142,12.0,12.0,65,0.00,SCT,SKC,0.00,0.0,WeatherDisplay:10.37,2014-10-20 01:24:00,
2014-10-19 18:29:00,68.3,56.1,29.62,SE,136,11.5,11.5,65,0.00,SCT,SKC,0.00,0.0,WeatherDisplay:10.37,2014-10-20 01:29:00,
2014-10-19 18:34:00,68.3,56.1,29.62,SE,145,15.0,15.0,65,0.00,SCT,SKC,0.00,0.0,WeatherDisplay:10.37,2014-10-20 01:34:00,
2014-10-19 18:39:00,68.3,56.1,29.62,SSE,148,18.4,18.4,65,0.00,SCT,SKC,0.00,0.0,WeatherDisplay:10.37,2014-10-20 01:39:00,
2014-10-19 18:44:00,68.3,56.1,29.62,SE,136,3.5,3.5,65,0.00,SCT,SKC,0.00,0.0,WeatherDisplay:10.37,2014-10-20 01:44:00,
2014-10-19 18:49:00,68.3,56.1,29.62,SSE,156,17.3,17.3,65,0.00,SCT,SKC,0.00,0.0,WeatherDisplay:10.37,2014-10-20 01:49:00,
2014-10-19 18:54:00,68.4,56.2,29.62,SSE,150,12.7,12.7,65,0.00,SCT,SKC,0.00,0.0,WeatherDisplay:10.37,2014-10-20 01:54:00,
2014-10-19 18:59:00,68.3,56.1,29.62,SE,146,13.8,13.8,65,0.00,SCT,SKC,0.00,0.0,WeatherDisplay:10.37,2014-10-20 01:59:00,
2014-10-19 19:04:00,68.3,56.1,29.63,SE,132,16.1,16.1,65,0.00,BKN,SKC,0.00,0.0,WeatherDisplay:10.37,2014-10-20 02:04:00,
2014-10-19 19:09:00,68.1,55.9,29.63,SE,136,16.1,16.1,65,0.00,BKN,SKC,0.00,0.0,WeatherDisplay:10.37,2014-10-20 02:09:00,
2014-10-19 19:14:00,67.9,56.1,29.63,SE,140,12.7,12.7,66,0.00,BKN,SKC,0.00,0.0,WeatherDisplay:10.37,2014-10-20 02:14:00,
2014-10-19 19:19:00,67.8,56.0,29.63,SSE,161,19.6,19.6,66,0.00,BKN,SKC,0.00,0.0,WeatherDisplay:10.37,2014-10-20 02:19:00,
2014-10-19 19:24:00,67.6,55.8,29.63,SE,139,12.0,12.0,66,0.00,BKN,SKC,0.00,0.0,WeatherDisplay:10.37,2014-10-20 02:24:00,
2014-10-19 19:29:00,67.3,56.0,29.62,SE,140,13.8,13.8,67,0.00,BKN,SKC,0.00,0.0,WeatherDisplay:10.37,2014-10-20 02:29:00,
2014-10-19 19:34:00,67.0,56.1,29.62,SSE,149,14.0,14.0,68,0.00,BKN,SKC,0.00,0.0,WeatherDisplay:10.37,2014-10-20 02:34:00,
2014-10-19 19:39:00,66.8,56.3,29.63,SE,138,12.7,12.7,69,0.00,BKN,SKC,0.00,0.0,WeatherDisplay:10.37,2014-10-20 02:39:00,
2014-10-19 19:44:00,66.5,56.0,29.63,ESE,111,20.7,20.7,69,0.00,BKN,SKC,0.00,0.0,WeatherDisplay:10.37,2014-10-20 02:44:00,
2014-10-19 19:49:00,66.3,56.2,29.63,SE,146,21.9,21.9,70,0.00,BKN,SKC,0.00,0.0,WeatherDisplay:10.37,2014-10-20 02:49:00,
2014-10-19 19:54:00,66.2,56.1,29.63,SE,142,11.5,11.5,70,0.00,BKN,SKC,0.00,0.0,WeatherDisplay:10.37,2014-10-20 02:54:00,
2014-10-19 19:59:00,65.8,56.1,29.63,SE,126,19.6,19.6,71,0.00,BKN,SKC,0.00,0.0,WeatherDisplay:10.37,2014-10-20 02:59:00,
2014-10-19 20:04:00,65.8,56.1,29.63,SE,142,19.6,19.6,71,0.00,OVC,SKC,0.00,0.0,WeatherDisplay:10.37,2014-10-20 03:04:00,
2014-10-19 20:09:00,65.8,56.1,29.64,South,181,11.5,11.5,71,0.00,OVC,SKC,0.00,0.0,WeatherDisplay:10.37,2014-10-20 03:09:00,
2014-10-19 20:14:00,65.5,56.2,29.65,SSE,155,10.4,10.4,72,0.00,OVC,SKC,0.00,0.0,WeatherDisplay:10.37,2014-10-20 03:14:00,
2014-10-19 20:19:00,65.3,56.0,29.65,SSE,149,1.0,1.1,72,0.00,OVC,SKC,0.00,0.0,WeatherDisplay:10.37,2014-10-20 03:19:00,
2014-10-19 20:24:00,65.2,56.3,29.66,SW,228,17.0,17.0,73,0.00,OVC,SKC,0.00,0.0,WeatherDisplay:10.37,2014-10-20 03:24:00,
2014-10-19 20:29:00,63.9,55.8,29.66,SSW,207,16.1,16.1,75,0.00,OVC,SKC,0.00,0.0,WeatherDisplay:10.37,2014-10-20 03:29:00,
2014-10-19 20:34:00,63.7,55.6,29.66,SW,223,17.3,17.3,75,0.00,OVC,SKC,0.00,0.0,WeatherDisplay:10.37,2014-10-20 03:34:00,
2014-10-19 20:39:00,63.0,54.9,29.66,SW,217,16.1,16.1,75,0.00,OVC,SKC,0.00,0.0,WeatherDisplay:10.37,2014-10-20 03:39:00,
2014-10-19 20:44:00,62.5,54.8,29.66,SW,236,10.4,10.4,76,0.00,OVC,SKC,0.00,0.0,WeatherDisplay:10.37,2014-10-20 03:44:00,
2014-10-19 20:49:00,62.0,54.7,29.66,SSW,209,11.5,11.5,77,0.00,OVC,SKC,0.00,0.0,WeatherDisplay:10.37,2014-10-20 03:49:00,
2014-10-19 20:54:00,61.2,54.6,29.66,SW,223,13.0,13.0,79,0.00,OVC,SKC,0.00,0.0,WeatherDisplay:10.37,2014-10-20 03:54:00,
2014-10-19 20:59:00,60.5,54.3,29.68,SW,221,11.5,11.5,80,0.00,OVC,SKC,0.00,0.0,WeatherDisplay:10.37,2014-10-20 03:59:00,
2014-10-19 21:04:00,60.2,54.3,29.68,South,188,10.4,10.4,81,0.00,OVC,SKC,0.00,0.0,WeatherDisplay:10.37,2014-10-20 04:04:00,
2014-10-19 21:09:00,59.7,54.2,29.68,SSW,206,11.5,11.5,82,0.00,OVC,SKC,0.00,0.0,WeatherDisplay:10.37,2014-10-20 04:09:00,
2014-10-19 21:14:00,59.6,54.1,29.68,SSW,212,10.4,10.4,82,0.00,OVC,SKC,0.00,0.0,WeatherDisplay:10.37,2014-10-20 04:14:00,
2014-10-19 21:19:00,59.6,54.1,29.68,SW,233,12.0,12.0,82,0.00,OVC,SKC,0.00,0.0,WeatherDisplay:10.37,2014-10-20 04:19:00,
2014-10-19 21:24:00,59.3,53.8,29.67,SSW,211,10.4,10.4,82,0.00,OVC,SKC,0.00,0.0,WeatherDisplay:10.37,2014-10-20 04:24:00,
2014-10-19 21:29:00,59.1,53.9,29.67,SSW,209,4.6,4.6,83,0.00,OVC,SKC,0.00,0.0,WeatherDisplay:10.37,2014-10-20 04:29:00,
2014-10-19 21:34:00,59.1,53.6,29.67,SSW,209,5.8,5.8,82,0.00,OVC,SKC,0.00,0.0,WeatherDisplay:10.37,2014-10-20 04:34:00,
2014-10-19 21:39:00,59.1,53.9,29.66,SSW,213,6.9,6.9,83,0.00,OVC,SKC,0.00,0.0,WeatherDisplay:10.37,2014-10-20 04:39:00,
2014-10-19 21:44:00,59.0,53.8,29.66,SW,226,6.9,6.9,83,0.00,OVC,SKC,0.00,0.0,WeatherDisplay:10.37,2014-10-20 04:44:00,
2014-10-19 21:49:00,58.8,54.0,29.66,SW,227,3.5,3.5,84,0.00,OVC,SKC,0.00,0.0,WeatherDisplay:10.37,2014-10-20 04:49:00,